Abergavenny, United Kingdom
Current Conditions -  °F | °C
As of 12:50 PM on Monday 20 Oct 2014 (Local Time) from EGFF Reporting Station
Overcast Overcast  
Wind Chill: 13°   Ceiling: 2900
Heat Index: 13°   Visibility: 6mi
Dew Point: 12°   Wind: 14mph
Humidity: 94%   Direction: 260°W
Pressure: 30"   Gusts: NA
Location:  51.82°N, 3.02°W
Report Text: EGFF 201150Z AUTO 26012KT 9999 SCT006/// BKN029/// OVC047/// //////TCU 13/12 Q1016 RERA
Loading
Personal Weather Stations






























Interactive Weather Map
Tropical Storm Tracking
New forecast layout! Learn more

10-Day Weather Forecast

Advertisements
Track Severe Weather on mobile